Kampala, Uganda
Current Conditions -  °F | °C
As of 10:55 AM on Sunday 26 Oct 2014 (Local Time) from KQUD Reporting Station
Few Clouds Few Clouds  
Wind Chill: 80°   Ceiling: Unl
Heat Index: 81°   Visibility: 10mi
Dew Point: 65°   Wind: 1mph
Humidity: 61%   Direction: 230°SW
Pressure: 30.24"   Gusts: NA
Location:  0.32°N, 32.58°E
Report Text: KQUD 260755Z AUTO 23001KT 10SM FEW021 26/18 A3024 RMK AO2 SLP190 T02640183
Loading
Personal Weather Stations






























Interactive Weather Map
Tropical Storm Tracking
New forecast layout! Learn more

10-Day Weather Forecast

Advertisements
Track Severe Weather on mobile